Terminal Aerodrome Forecast
Issued by NWS

Home | Current Version | Previous Version | Text Only | Print | Product List | Glossary On
Versions: 1 2 3 4 5 6 7 8 9 10 11 12 13 14
000
FTUS46 KSEW 282300
TAFBFI
TAF
KBFI 282320Z 2900/2924 20010G18KT P6SM SCT050 BKN100
     FM290200 18006KT P6SM BKN050 OVC100
     FM290600 16006KT P6SM BKN050 OVC080=

USA.gov is the U.S. government's official web portal to all federal, state and local government web resources and services.